Time;durP1;ratioP1;P1;durP2;ratioP2;P2;SDS_P1;SDS_P2;PMS_P1;PMS_P2;Temp;Humidity;BMP_temperature;BMP_pressure;BME280_temperature;BME280_humidity;BME280_pressure;Samples;Min_cycle;Max_cycle;Signal;HPM_P1;HPM_P2
2023/02/21 02:15:34;;;;;;;;;;;;;;;26.04;36.68;94623.44;4988254;28;7301;-65
2023/02/21 02:18:02;;;;;;;;;;;;;;;26.05;36.83;94630.47;4988463;28;9334;-63
2023/02/21 02:21:07;;;;;;;;;;;;;;;26.03;37.42;94624.69;4988795;28;8633;-63
2023/02/21 02:24:11;;;;;;;;;;;;;;;26.03;37.43;94623.97;5041905;28;9447;-63
2023/02/21 02:27:28;;;;;;;;;;;;;;;26.02;36.64;94619.69;5035692;28;6984;-63
2023/02/21 02:30:21;;;;;;;;;;;;;;;26.02;37.39;94623.19;5033463;28;7306;-63
2023/02/21 02:33:36;;;;;;;;;;;;;;;26.01;37.28;94621.69;5028458;28;7461;-63
2023/02/21 02:36:15;;;;;;;;;;;;;;;26.00;36.81;94613.94;5034693;28;6857;-63
2023/02/21 02:39:14;;;;;;;;;;;;;;;26.00;36.93;94611.94;5040637;28;7053;-63
2023/02/21 02:42:18;;;;;;;;;;;;;;;26.00;37.33;94613.94;5032045;28;8519;-63
2023/02/21 02:45:36;;;;;;;;;;;;;;;25.99;37.29;94618.69;5051898;28;7044;-63
2023/02/21 02:48:50;;;;;;;;;;;;;;;25.99;37.46;94615.94;4955808;28;7112;-63
2023/02/21 02:51:17;;;;;;;;;;;;;;;26.00;37.12;94605.66;4959041;28;8608;-63
2023/02/21 02:53:58;;;;;;;;;;;;;;;25.97;36.46;94609.44;4961213;28;7454;-63
2023/02/21 02:56:28;;;;;;;;;;;;;;;25.97;37.06;94598.41;4971881;28;7822;-63
2023/02/21 02:59:06;;;;;;;;;;;;;;;25.94;36.79;94600.19;4953010;28;7184;-62
2023/02/21 03:01:35;;;;;;;;;;;;;;;25.95;36.74;94612.69;4949094;28;7025;-63
2023/02/21 03:04:07;;;;;;;;;;;;;;;25.95;37.05;94607.19;4962898;28;8726;-62
2023/02/21 03:07:22;;;;;;;;;;;;;;;25.95;37.37;94612.69;4970839;28;7040;-63
2023/02/21 03:10:23;;;;;;;;;;;;;;;25.94;37.38;94604.94;4955511;28;7284;-63
2023/02/21 03:13:16;;;;;;;;;;;;;;;25.92;36.64;94602.72;4947327;28;7022;-63
2023/02/21 03:16:11;;;;;;;;;;;;;;;25.92;36.51;94599.97;4966027;28;9097;-62
2023/02/21 03:19:06;;;;;;;;;;;;;;;25.91;36.61;94601.19;4954484;28;7061;-62
2023/02/21 03:21:55;;;;;;;;;;;;;;;25.90;36.85;94594.19;4993786;28;7276;-63
2023/02/21 03:25:08;;;;;;;;;;;;;;;25.92;36.85;94599.97;5035059;28;7073;-63
2023/02/21 03:27:51;;;;;;;;;;;;;;;25.88;36.90;94591.19;5005747;28;7360;-63
2023/02/21 03:30:41;;;;;;;;;;;;;;;25.89;37.05;94589.94;4994906;28;7272;-63
2023/02/21 03:33:45;;;;;;;;;;;;;;;25.91;36.55;94589.41;5010209;28;9100;-63
2023/02/21 03:36:49;;;;;;;;;;;;;;;25.90;36.47;94585.91;4955658;28;9187;-63
2023/02/21 03:39:25;;;;;;;;;;;;;;;25.88;37.32;94579.44;4957245;28;7565;-63
2023/02/21 03:42:02;;;;;;;;;;;;;;;25.89;36.36;94587.19;4955998;28;9028;-63
2023/02/21 03:44:48;;;;;;;;;;;;;;;25.87;36.78;94588.94;4955963;28;7038;-63
2023/02/21 03:47:34;;;;;;;;;;;;;;;25.86;36.50;94590.94;4939870;28;8751;-63
2023/02/21 03:50:09;;;;;;;;;;;;;;;25.86;37.20;94588.19;4934528;28;9120;-63
2023/02/21 03:52:35;;;;;;;;;;;;;;;25.86;37.14;94581.94;4955402;28;10232;-57
2023/02/21 03:55:11;;;;;;;;;;;;;;;25.86;36.56;94587.47;4939757;28;7055;-57
2023/02/21 03:57:39;;;;;;;;;;;;;;;25.86;36.97;94598.47;4939897;28;9015;-57
2023/02/21 04:00:14;;;;;;;;;;;;;;;25.86;37.46;94592.97;4955112;28;7054;-57
2023/02/21 04:02:42;;;;;;;;;;;;;;;25.85;37.25;94589.47;4941541;28;9549;-57
2023/02/21 04:05:08;;;;;;;;;;;;;;;25.82;37.42;94582.19;4973606;28;9156;-57
2023/02/21 04:07:34;;;;;;;;;;;;;;;25.84;37.41;94585.19;4989002;28;7229;-57
2023/02/21 04:10:01;;;;;;;;;;;;;;;25.83;37.50;94578.19;5001138;28;7195;-57
2023/02/21 04:12:27;;;;;;;;;;;;;;;25.80;37.34;94584.72;5052472;28;9168;-57
2023/02/21 04:14:55;;;;;;;;;;;;;;;25.83;36.74;94585.72;5053179;28;9070;-57
2023/02/21 04:17:21;;;;;;;;;;;;;;;25.82;36.49;94578.69;5034769;28;7121;-57
2023/02/21 04:19:53;;;;;;;;;;;;;;;25.81;37.50;94583.47;5034260;28;7032;-57
2023/02/21 04:22:21;;;;;;;;;;;;;;;25.80;36.77;94579.19;5033370;28;7287;-57
2023/02/21 04:24:57;;;;;;;;;;;;;;;25.81;37.47;94585.47;5018071;28;9369;-57
2023/02/21 04:27:28;;;;;;;;;;;;;;;25.79;36.48;94583.22;5052036;28;9127;-57
2023/02/21 04:29:55;;;;;;;;;;;;;;;25.74;37.46;94572.97;5034266;28;9215;-56
2023/02/21 04:32:23;;;;;;;;;;;;;;;25.78;37.46;94581.72;5031777;28;7206;-57
2023/02/21 04:34:53;;;;;;;;;;;;;;;25.75;37.03;94577.22;5036281;28;7109;-57
2023/02/21 04:37:20;;;;;;;;;;;;;;;25.76;36.47;94581.47;5030694;28;8774;-57
2023/02/21 04:39:48;;;;;;;;;;;;;;;25.73;37.41;94576.97;5036091;28;7419;-57
2023/02/21 04:42:21;;;;;;;;;;;;;;;25.70;37.03;94575.25;5054620;28;7205;-56
2023/02/21 04:44:49;;;;;;;;;;;;;;;25.72;36.56;94581.00;5034639;28;7318;-56
2023/02/21 04:47:15;;;;;;;;;;;;;;;25.74;37.32;94581.25;5032821;28;8266;-57
2023/02/21 04:49:43;;;;;;;;;;;;;;;25.72;37.14;94577.47;5036647;28;9088;-57
2023/02/21 04:52:10;;;;;;;;;;;;;;;25.75;36.73;94582.00;5028036;28;8698;-57
2023/02/21 04:54:41;;;;;;;;;;;;;;;25.75;36.58;94584.75;5043244;28;7401;-57
2023/02/21 04:57:09;;;;;;;;;;;;;;;25.74;37.04;94580.47;5041422;28;7062;-57
2023/02/21 04:59:40;;;;;;;;;;;;;;;25.72;37.03;94580.25;5036115;28;7271;-57
2023/02/21 05:02:07;;;;;;;;;;;;;;;25.71;36.73;94581.50;5042459;28;7035;-57
2023/02/21 05:04:43;;;;;;;;;;;;;;;25.73;37.17;94585.22;5036139;28;9187;-57
2023/02/21 05:07:10;;;;;;;;;;;;;;;25.71;37.12;94596.00;5032945;28;7045;-57
2023/02/21 05:09:54;;;;;;;;;;;;;;;25.71;36.90;94587.03;5036138;28;7179;-57
2023/02/21 05:12:21;;;;;;;;;;;;;;;25.65;36.93;94584.28;5053031;28;7023;-57
2023/02/21 05:14:47;;;;;;;;;;;;;;;25.68;36.53;94588.78;5051112;28;7028;-57
2023/02/21 05:17:14;;;;;;;;;;;;;;;25.67;37.08;94590.03;5032600;28;7236;-57
2023/02/21 05:19:46;;;;;;;;;;;;;;;25.71;37.31;94587.75;5049126;28;7523;-57
2023/02/21 05:22:26;;;;;;;;;;;;;;;25.68;37.39;94594.28;5032961;28;7489;-57
2023/02/21 05:25:06;;;;;;;;;;;;;;;25.69;36.35;94584.00;5046483;28;7021;-57
2023/02/21 05:28:01;;;;;;;;;;;;;;;25.68;36.77;94594.28;5027737;28;9027;-57
2023/02/21 05:30:27;;;;;;;;;;;;;;;25.67;36.39;94595.53;4994216;28;9480;-57
2023/02/21 05:32:54;;;;;;;;;;;;;;;25.67;36.73;94592.78;4996443;28;7875;-57
2023/02/21 05:35:46;;;;;;;;;;;;;;;25.69;36.45;94587.50;5012770;28;9095;-57
2023/02/21 05:38:27;;;;;;;;;;;;;;;25.69;36.85;94595.00;5010114;28;9116;-57
2023/02/21 05:41:23;;;;;;;;;;;;;;;25.67;37.56;94597.53;5012411;28;7605;-57
2023/02/21 05:48:23;;;;;;;;;;;;;;;25.64;36.50;94599.31;4938691;28;6992;-57
2023/02/21 05:50:49;;;;;;;;;;;;;;;25.64;37.18;94601.31;4878095;29;7265;-57
2023/02/21 05:53:29;;;;;;;;;;;;;;;25.61;36.87;94594.06;4906567;29;7027;-56
2023/02/21 05:56:25;;;;;;;;;;;;;;;25.63;36.59;94606.06;4901573;29;7233;-57
2023/02/21 05:59:19;;;;;;;;;;;;;;;25.61;37.57;94605.81;4881259;29;7047;-57
2023/02/21 06:02:03;;;;;;;;;;;;;;;25.60;36.81;94598.81;4886616;29;9180;-57
2023/02/21 06:04:35;;;;;;;;;;;;;;;25.60;37.16;94604.31;4880592;29;9088;-57
2023/02/21 06:07:03;;;;;;;;;;;;;;;25.59;37.48;94608.34;4887994;29;9135;-56
2023/02/21 06:09:42;;;;;;;;;;;;;;;25.60;36.73;94604.31;4898075;29;9084;-57
2023/02/21 06:12:10;;;;;;;;;;;;;;;25.60;36.59;94611.84;4912727;29;8951;-57
2023/02/21 06:14:39;;;;;;;;;;;;;;;25.59;37.04;94608.34;4914987;29;8745;-56
2023/02/21 06:17:05;;;;;;;;;;;;;;;25.55;36.38;94602.34;4916417;29;7038;-57
2023/02/21 06:19:42;;;;;;;;;;;;;;;25.57;36.75;94608.09;4913839;28;7265;-57
2023/02/21 06:22:11;;;;;;;;;;;;;;;25.56;36.75;94620.34;4967687;28;7129;-56
2023/02/21 06:24:37;;;;;;;;;;;;;;;25.57;36.43;94608.09;4982863;28;7255;-56
2023/02/21 06:27:07;;;;;;;;;;;;;;;25.59;36.85;94607.59;5007179;28;6997;-57
2023/02/21 06:29:34;;;;;;;;;;;;;;;25.57;37.23;94616.34;5047416;28;9548;-56
2023/02/21 06:32:02;;;;;;;;;;;;;;;25.59;36.88;94618.59;5032266;28;9157;-57
2023/02/21 06:34:30;;;;;;;;;;;;;;;25.58;37.00;94622.63;5039710;28;8993;-57
2023/02/21 06:36:58;;;;;;;;;;;;;;;25.57;37.18;94623.88;5031792;28;7613;-57
2023/02/21 06:39:26;;;;;;;;;;;;;;;25.57;36.50;94623.88;5030921;28;7452;-56
2023/02/21 06:41:54;;;;;;;;;;;;;;;25.58;36.48;94628.84;5028940;28;9479;-57
2023/02/21 06:44:23;;;;;;;;;;;;;;;25.58;37.11;94631.63;5049645;28;7040;-56
2023/02/21 06:46:49;;;;;;;;;;;;;;;25.57;36.74;94621.88;5030346;28;9059;-56
2023/02/21 06:49:15;;;;;;;;;;;;;;;25.55;36.66;94621.63;5031160;28;7303;-57
2023/02/21 06:51:45;;;;;;;;;;;;;;;25.54;37.35;94622.88;5037475;28;9201;-57
2023/02/21 06:54:15;;;;;;;;;;;;;;;25.53;36.58;94626.88;5043088;28;9045;-57
2023/02/21 06:56:43;;;;;;;;;;;;;;;25.50;37.22;94619.63;5033629;28;7310;-62
2023/02/21 06:59:11;;;;;;;;;;;;;;;25.51;36.68;94629.41;5037693;28;7019;-62
2023/02/21 07:01:37;;;;;;;;;;;;;;;25.50;36.86;94624.38;5040273;28;9675;-63
2023/02/21 07:04:03;;;;;;;;;;;;;;;25.50;37.06;94619.63;5038406;28;9715;-63
2023/02/21 07:06:30;;;;;;;;;;;;;;;25.48;37.03;94619.38;5008495;28;7040;-63
2023/02/21 07:09:08;;;;;;;;;;;;;;;25.51;37.41;94623.91;5029992;28;9017;-63
2023/02/21 07:11:50;;;;;;;;;;;;;;;25.49;37.35;94620.88;5050312;28;7212;-64
2023/02/21 07:14:39;;;;;;;;;;;;;;;25.49;37.44;94622.91;5038988;28;7550;-63
2023/02/21 07:17:05;;;;;;;;;;;;;;;25.48;37.11;94624.13;5056652;28;7057;-63
2023/02/21 07:19:38;;;;;;;;;;;;;;;25.49;36.43;94631.16;5055705;28;7458;-63
2023/02/21 07:22:38;;;;;;;;;;;;;;;25.49;36.54;94631.88;5038954;28;6964;-63
2023/02/21 07:25:20;;;;;;;;;;;;;;;25.49;36.91;94631.16;5023725;28;7200;-63
2023/02/21 07:31:19;;;;;;;;;;;;;;;25.48;37.29;94635.16;4991622;28;7047;-64
2023/02/21 07:34:22;;;;;;;;;;;;;;;25.48;37.04;94635.16;4971423;28;8769;-64
2023/02/21 07:36:49;;;;;;;;;;;;;;;25.45;36.94;94634.16;4943063;28;9471;-63
2023/02/21 07:39:33;;;;;;;;;;;;;;;25.47;37.22;94633.66;4946911;28;9393;-63
2023/02/21 07:42:01;;;;;;;;;;;;;;;25.46;36.85;94632.16;4956913;28;8790;-63
2023/02/21 07:44:39;;;;;;;;;;;;;;;25.46;37.10;94638.41;4939742;28;7003;-63
2023/02/21 07:47:42;;;;;;;;;;;;;;;25.47;37.51;94637.16;4939070;28;7188;-63
2023/02/21 07:50:28;;;;;;;;;;;;;;;25.47;36.60;94636.41;4952893;28;7250;-63
2023/02/21 07:53:05;;;;;;;;;;;;;;;25.47;36.88;94639.91;4937501;28;9409;-63
2023/02/21 07:55:39;;;;;;;;;;;;;;;25.48;37.52;94637.91;4951154;28;7272;-63
2023/02/21 07:58:36;;;;;;;;;;;;;;;25.49;37.13;94642.16;4940020;28;9095;-62
2023/02/21 08:01:16;;;;;;;;;;;;;;;25.45;36.70;94628.63;4947741;28;9392;-62
2023/02/21 08:03:54;;;;;;;;;;;;;;;25.46;36.87;94629.41;4957793;28;7285;-62
2023/02/21 08:06:34;;;;;;;;;;;;;;;25.45;36.92;94631.41;4964447;28;9473;-62
2023/02/21 08:09:16;;;;;;;;;;;;;;;25.45;37.63;94630.66;4975025;28;9474;-63
2023/02/21 08:11:45;;;;;;;;;;;;;;;25.46;37.01;94632.91;5030651;28;9059;-62
2023/02/21 08:14:18;;;;;;;;;;;;;;;25.44;36.74;94627.16;5027778;28;7060;-62
2023/02/21 08:16:44;;;;;;;;;;;;;;;25.47;37.48;94628.16;5037919;28;9115;-62
2023/02/21 08:19:10;;;;;;;;;;;;;;;25.47;37.01;94628.88;5028725;28;9161;-62
2023/02/21 08:21:49;;;;;;;;;;;;;;;25.46;37.61;94632.91;5033097;28;7201;-62
2023/02/21 08:24:36;;;;;;;;;;;;;;;25.46;37.09;94627.41;5042736;28;6950;-62
2023/02/21 08:27:09;;;;;;;;;;;;;;;25.44;37.13;94629.91;5029621;28;7288;-62
2023/02/21 08:29:42;;;;;;;;;;;;;;;25.45;37.33;94628.63;5034992;28;7530;-62
2023/02/21 08:32:10;;;;;;;;;;;;;;;25.46;37.02;94624.66;5048810;28;6860;-62
2023/02/21 08:34:36;;;;;;;;;;;;;;;25.47;37.11;94619.91;5033002;28;7225;-62
2023/02/21 08:37:05;;;;;;;;;;;;;;;25.49;37.51;94623.63;5044380;28;9205;-62
2023/02/21 08:39:32;;;;;;;;;;;;;;;25.46;37.48;94623.88;5034617;28;8382;-62
2023/02/21 08:42:03;;;;;;;;;;;;;;;25.45;36.92;94620.38;5031788;28;8993;-62
2023/02/21 08:45:19;;;;;;;;;;;;;;;25.50;37.50;94622.38;5037079;28;9034;-62
2023/02/21 08:48:16;;;;;;;;;;;;;;;25.50;37.08;94621.63;5037583;28;9047;-63
2023/02/21 08:51:16;;;;;;;;;;;;;;;25.50;36.69;94619.63;4993634;28;9229;-62
2023/02/21 08:53:45;;;;;;;;;;;;;;;25.47;37.17;94612.34;4993315;28;7095;-62
2023/02/21 08:56:26;;;;;;;;;;;;;;;25.49;37.19;94612.59;4993662;28;7289;-62
2023/02/21 08:59:21;;;;;;;;;;;;;;;25.51;36.75;94614.88;4977399;28;7029;-62
2023/02/21 09:01:56;;;;;;;;;;;;;;;25.49;37.28;94609.13;4967942;28;7226;-62
2023/02/21 09:04:35;;;;;;;;;;;;;;;25.49;37.43;94609.13;4976995;28;7246;-62
2023/02/21 09:07:36;;;;;;;;;;;;;;;25.48;37.48;94611.13;4993474;28;7175;-62
2023/02/21 09:10:46;;;;;;;;;;;;;;;25.48;37.88;94608.38;4906834;29;7237;-62
2023/02/21 09:13:12;;;;;;;;;;;;;;;25.47;37.43;94608.88;4913561;29;9346;-62
2023/02/21 09:16:03;;;;;;;;;;;;;;;25.47;37.18;94609.59;4909726;29;9018;-62
2023/02/21 09:18:52;;;;;;;;;;;;;;;25.48;37.24;94607.59;4893333;29;7831;-62
2023/02/21 09:21:54;;;;;;;;;;;;;;;25.48;37.19;94605.63;4919095;29;7045;-62
2023/02/21 09:24:24;;;;;;;;;;;;;;;25.47;37.52;94604.09;4863479;29;9063;-62
2023/02/21 09:26:55;;;;;;;;;;;;;;;25.48;37.28;94602.09;4896369;29;7087;-62
2023/02/21 09:29:21;;;;;;;;;;;;;;;25.48;37.03;94600.09;4926302;29;7352;-62
2023/02/21 09:31:48;;;;;;;;;;;;;;;25.48;37.11;94597.34;4918616;29;9074;-62
2023/02/21 09:34:40;;;;;;;;;;;;;;;25.48;37.57;94597.34;4910599;29;9029;-62
2023/02/21 09:37:26;;;;;;;;;;;;;;;25.47;37.48;94593.09;4919109;29;9282;-62
2023/02/21 09:39:52;;;;;;;;;;;;;;;25.50;37.61;94592.09;4918868;29;7528;-62
2023/02/21 09:42:27;;;;;;;;;;;;;;;25.49;37.67;94590.56;4934696;29;7007;-62
2023/02/21 09:45:32;;;;;;;;;;;;;;;25.49;36.91;94587.81;4937016;28;7164;-62
2023/02/21 09:48:42;;;;;;;;;;;;;;;25.50;37.97;94569.28;4976823;28;7057;-62
2023/02/21 09:51:47;;;;;;;;;;;;;;;25.51;36.90;94562.53;4953584;28;9003;-62
2023/02/21 09:54:35;;;;;;;;;;;;;;;25.50;37.58;94578.31;4937572;28;7074;-62
2023/02/21 09:57:17;;;;;;;;;;;;;;;25.51;37.40;94563.31;4937954;28;7112;-62
2023/02/21 09:59:44;;;;;;;;;;;;;;;25.51;37.74;94560.56;4939987;28;9307;-62
2023/02/21 10:02:27;;;;;;;;;;;;;;;25.52;37.54;94562.03;4977046;28;8727;-62
2023/02/21 10:04:54;;;;;;;;;;;;;;;25.51;37.95;94557.78;4989647;28;9129;-62
2023/02/21 10:07:49;;;;;;;;;;;;;;;25.52;37.07;94558.53;4972027;28;7009;-62
2023/02/21 10:10:57;;;;;;;;;;;;;;;25.53;37.16;94560.78;4988845;28;9016;-62
2023/02/21 10:14:01;;;;;;;;;;;;;;;25.54;37.08;94556.75;4975350;28;7222;-62
2023/02/21 10:16:39;;;;;;;;;;;;;;;25.55;37.58;94558.28;4973008;28;9470;-62
2023/02/21 10:19:30;;;;;;;;;;;;;;;25.52;37.38;94548.25;4975359;28;7263;-62
2023/02/21 10:21:59;;;;;;;;;;;;;;;25.56;37.36;94556.25;4988966;28;7291;-62
2023/02/21 10:24:27;;;;;;;;;;;;;;;25.55;37.37;94552.78;4973224;28;7047;-62
2023/02/21 10:27:04;;;;;;;;;;;;;;;25.56;37.18;94559.75;4956946;28;7052;-62
2023/02/21 10:29:51;;;;;;;;;;;;;;;25.55;37.04;94552.78;5025054;28;7037;-62
2023/02/21 10:32:17;;;;;;;;;;;;;;;25.56;37.42;94554.25;5025856;28;9043;-62
2023/02/21 10:34:48;;;;;;;;;;;;;;;25.60;37.30;94548.50;5029269;28;9117;-62
2023/02/21 10:37:37;;;;;;;;;;;;;;;25.61;37.03;94545.22;5027856;28;7024;-62
2023/02/21 10:40:29;;;;;;;;;;;;;;;25.63;37.90;94539.97;5032849;28;7367;-62
2023/02/21 10:46:42;;;;;;;;;;;;;;;25.64;37.74;94540.72;5052914;28;7270;-62
2023/02/21 10:49:39;;;;;;;;;;;;;;;25.64;37.07;94535.97;5035050;28;7245;-62
2023/02/21 10:52:24;;;;;;;;;;;;;;;25.64;37.69;94538.72;5033795;28;7101;-63
2023/02/21 10:55:12;;;;;;;;;;;;;;;25.64;37.94;94535.19;5025791;28;8483;-62
2023/02/21 10:57:53;;;;;;;;;;;;;;;25.64;37.78;94527.69;5027905;28;8735;-62
2023/02/21 11:00:46;;;;;;;;;;;;;;;25.66;37.46;94530.69;5046327;28;7101;-62
2023/02/21 11:03:18;;;;;;;;;;;;;;;25.65;37.40;94525.66;5037396;28;9075;-63
2023/02/21 11:05:56;;;;;;;;;;;;;;;25.66;37.41;94521.66;5049511;28;8919;-62
2023/02/21 11:08:52;;;;;;;;;;;;;;;25.68;37.42;94519.91;5030607;28;7275;-62
2023/02/21 11:11:41;;;;;;;;;;;;;;;25.69;37.83;94510.38;5034901;28;9074;-62
2023/02/21 11:14:20;;;;;;;;;;;;;;;25.71;37.54;94509.88;5044529;28;8783;-62
2023/02/21 11:17:39;;;;;;;;;;;;;;;25.70;37.29;94506.38;5034826;28;7288;-62
2023/02/21 11:20:25;;;;;;;;;;;;;;;25.71;37.96;94496.13;5029519;28;8767;-62
2023/02/21 11:23:05;;;;;;;;;;;;;;;25.69;37.45;94488.34;5035407;28;8988;-62
2023/02/21 11:25:44;;;;;;;;;;;;;;;25.74;37.74;94481.31;5045782;28;8995;-62
2023/02/21 11:28:14;;;;;;;;;;;;;;;25.74;37.73;94484.06;5031577;28;8776;-62
2023/02/21 11:31:30;;;;;;;;;;;;;;;25.75;37.24;94472.53;5041864;28;7061;-62
2023/02/21 11:34:14;;;;;;;;;;;;;;;25.76;37.72;94471.28;5031409;28;7049;-62
2023/02/21 11:37:09;;;;;;;;;;;;;;;25.78;37.22;94460.50;5050399;28;9154;-62
2023/02/21 11:39:51;;;;;;;;;;;;;;;25.79;37.73;94464.75;5044726;28;7313;-63
2023/02/21 11:43:08;;;;;;;;;;;;;;;25.80;37.07;94457.97;5033994;28;7275;-62
2023/02/21 11:45:58;;;;;;;;;;;;;;;25.81;37.67;94450.47;5042631;28;8998;-62
2023/02/21 11:49:02;;;;;;;;;;;;;;;25.81;37.08;94453.97;5037561;28;7038;-62
2023/02/21 11:52:11;;;;;;;;;;;;;;;25.82;38.07;94438.91;5025385;28;9184;-62
2023/02/21 11:54:38;;;;;;;;;;;;;;;25.79;37.88;94431.69;5026063;28;7463;-62
2023/02/21 11:57:54;;;;;;;;;;;;;;;25.84;37.15;94432.88;5035169;28;6974;-62
2023/02/21 12:01:01;;;;;;;;;;;;;;;25.87;38.15;94431.88;5056299;28;8992;-62
2023/02/21 12:04:11;;;;;;;;;;;;;;;25.87;37.97;94415.34;5044649;28;7264;-62
2023/02/21 12:06:58;;;;;;;;;;;;;;;25.87;38.11;94409.84;5038406;28;9119;-62
2023/02/21 12:09:58;;;;;;;;;;;;;;;25.88;37.10;94400.31;5038225;28;7200;-62
2023/02/21 12:16:06;;;;;;;;;;;;;;;25.94;37.93;94401.78;5055831;28;6958;-62
2023/02/21 12:19:15;;;;;;;;;;;;;;;25.94;37.07;94392.75;5037708;28;7206;-62
2023/02/21 12:22:21;;;;;;;;;;;;;;;25.95;37.19;94383.22;4992709;28;9340;-63
2023/02/21 12:24:49;;;;;;;;;;;;;;;25.94;37.81;94385.25;5006046;28;9011;-63
2023/02/21 12:27:32;;;;;;;;;;;;;;;25.96;37.09;94381.97;5001811;28;7035;-63
2023/02/21 12:30:35;;;;;;;;;;;;;;;25.96;37.38;94379.97;5011985;28;7480;-63
2023/02/21 12:33:33;;;;;;;;;;;;;;;25.96;37.80;94374.44;5006380;28;7052;-63
2023/02/21 12:36:44;;;;;;;;;;;;;;;25.97;37.66;94367.66;5003686;28;7286;-63
2023/02/21 12:39:46;;;;;;;;;;;;;;;25.97;37.46;94362.16;4997351;28;9076;-62
2023/02/21 12:42:54;;;;;;;;;;;;;;;25.97;37.43;94362.16;5004404;28;9102;-62
2023/02/21 12:45:58;;;;;;;;;;;;;;;25.99;38.03;94351.34;4996944;28;7364;-62
2023/02/21 12:48:35;;;;;;;;;;;;;;;25.98;37.46;94355.38;4999730;28;7301;-62
2023/02/21 12:51:20;;;;;;;;;;;;;;;26.00;37.51;94344.59;5000009;28;7274;-62
2023/02/21 12:54:13;;;;;;;;;;;;;;;26.02;38.28;94344.81;4996421;28;9677;-63
2023/02/21 12:57:12;;;;;;;;;;;;;;;26.04;37.47;94336.03;4996556;28;7503;-62
2023/02/21 13:00:16;;;;;;;;;;;;;;;26.05;37.89;94330.03;5032883;28;6991;-62
2023/02/21 13:02:54;;;;;;;;;;;;;;;26.07;37.45;94327.50;5033964;28;8803;-62
2023/02/21 13:05:44;;;;;;;;;;;;;;;26.10;37.55;94325.72;5035873;28;7018;-62
2023/02/21 13:08:22;;;;;;;;;;;;;;;26.10;37.64;94323.72;5051611;28;7054;-62
2023/02/21 13:10:56;;;;;;;;;;;;;;;26.13;37.87;94314.44;5037242;28;9219;-62
2023/02/21 13:13:55;;;;;;;;;;;;;;;26.17;38.12;94306.63;5036169;28;7507;-62
2023/02/21 13:16:35;;;;;;;;;;;;;;;26.20;37.63;94304.84;5020968;28;7144;-63
2023/02/21 13:19:14;;;;;;;;;;;;;;;26.21;38.03;94305.59;5011936;28;6997;-62
2023/02/21 13:22:23;;;;;;;;;;;;;;;26.25;37.50;94304.03;4994486;28;7106;-62
2023/02/21 13:25:17;;;;;;;;;;;;;;;26.30;38.44;94292.19;4972670;28;7288;-62
2023/02/21 13:28:16;;;;;;;;;;;;;;;26.33;38.05;94295.94;4964724;28;9051;-62
2023/02/21 13:30:49;;;;;;;;;;;;;;;26.36;37.41;94289.41;4958030;28;9043;-62
2023/02/21 13:33:37;;;;;;;;;;;;;;;26.39;38.02;94280.06;4967901;28;7047;-62
2023/02/21 13:39:53;;;;;;;;;;;;;;;26.43;37.32;94270.25;4954322;28;7027;-62
2023/02/21 13:42:42;;;;;;;;;;;;;;;26.49;37.96;94270.91;4957575;28;7616;-62
2023/02/21 13:45:27;;;;;;;;;;;;;;;26.53;37.86;94267.88;4962717;28;7175;-62
2023/02/21 13:48:17;;;;;;;;;;;;;;;26.55;37.18;94266.09;4939648;28;8461;-62
2023/02/21 13:51:01;;;;;;;;;;;;;;;26.58;37.19;94258.78;4954238;28;7281;-62
2023/02/21 13:53:34;;;;;;;;;;;;;;;26.59;37.70;94258.28;4981091;28;7234;-62
2023/02/21 13:56:06;;;;;;;;;;;;;;;26.64;37.49;94256.72;5015376;28;7006;-62
2023/02/21 13:58:50;;;;;;;;;;;;;;;26.67;37.51;94253.66;5051957;28;7109;-62
2023/02/21 14:01:16;;;;;;;;;;;;;;;26.68;37.14;94246.13;5036239;28;7552;-62
2023/02/21 14:03:53;;;;;;;;;;;;;;;26.70;37.50;94244.34;5053701;28;9133;-62
2023/02/21 14:06:29;;;;;;;;;;;;;;;26.74;37.32;94244.06;5036389;28;8985;-62
2023/02/21 14:09:16;;;;;;;;;;;;;;;26.78;37.01;94233.47;5027435;28;9406;-62
2023/02/21 14:12:11;;;;;;;;;;;;;;;26.81;36.95;94235.19;5054037;28;9111;-62
2023/02/21 14:15:07;;;;;;;;;;;;;;;26.86;37.31;94232.34;5040433;28;7197;-62
2023/02/21 14:17:41;;;;;;;;;;;;;;;26.87;37.25;94228.31;4984033;28;7059;-62
2023/02/21 14:20:44;;;;;;;;;;;;;;;26.90;37.08;94223.78;4972119;28;7340;-62
2023/02/21 14:23:49;;;;;;;;;;;;;;;26.93;37.16;94217.19;4975740;28;9095;-62
2023/02/21 14:26:58;;;;;;;;;;;;;;;26.97;36.73;94220.41;4975628;28;8910;-62
2023/02/21 14:30:21;;;;;;;;;;;;;;;27.00;37.00;94205.56;4976065;28;7062;-62
2023/02/21 14:33:07;;;;;;;;;;;;;;;27.03;37.17;94214.81;4974693;28;9060;-62
2023/02/21 14:36:03;;;;;;;;;;;;;;;27.05;37.33;94201.97;4975092;28;7032;-62
2023/02/21 14:38:43;;;;;;;;;;;;;;;27.05;36.98;94206.75;4969366;28;8205;-63
2023/02/21 14:41:19;;;;;;;;;;;;;;;27.10;37.11;94208.69;4973180;28;7338;-62
2023/02/21 14:44:13;;;;;;;;;;;;;;;27.10;37.15;94208.69;4988336;28;8676;-62
2023/02/21 14:47:05;;;;;;;;;;;;;;;27.11;36.76;94205.38;4978313;28;9089;-62
2023/02/21 14:49:56;;;;;;;;;;;;;;;27.14;36.92;94198.81;4993973;28;7032;-62
2023/02/21 14:52:45;;;;;;;;;;;;;;;27.18;36.82;94195.75;4988760;28;7240;-62
2023/02/21 14:55:36;;;;;;;;;;;;;;;27.20;36.92;94184.91;4998805;28;9134;-62
2023/02/21 14:58:47;;;;;;;;;;;;;;;27.25;36.81;94187.59;5005658;28;9410;-62
2023/02/21 15:01:42;;;;;;;;;;;;;;;27.26;36.52;94180.81;4995748;28;7037;-62
2023/02/21 15:04:16;;;;;;;;;;;;;;;27.29;36.88;94176.25;4991915;28;8968;-62
2023/02/21 15:06:59;;;;;;;;;;;;;;;27.33;36.90;94177.44;4991102;28;9172;-62
2023/02/21 15:09:26;;;;;;;;;;;;;;;27.38;36.54;94175.88;4991377;28;7143;-63
2023/02/21 15:11:52;;;;;;;;;;;;;;;27.39;36.73;94166.31;4988075;28;7192;-62
2023/02/21 15:14:25;;;;;;;;;;;;;;;27.44;36.43;94171.00;4991266;28;8939;-62
2023/02/21 15:17:24;;;;;;;;;;;;;;;27.50;36.36;94175.16;5002456;28;8764;-62
2023/02/21 15:20:14;;;;;;;;;;;;;;;27.55;36.58;94170.81;4976791;28;7316;-63
2023/02/21 15:22:41;;;;;;;;;;;;;;;27.55;36.49;94166.03;4972077;28;7037;-62
2023/02/21 15:25:26;;;;;;;;;;;;;;;27.57;36.57;94154.44;4953098;28;9008;-62
2023/02/21 15:27:56;;;;;;;;;;;;;;;27.60;36.48;94148.59;4992423;28;7259;-63
2023/02/21 15:30:41;;;;;;;;;;;;;;;27.64;36.44;94157.31;4991756;28;7117;-62
2023/02/21 15:33:29;;;;;;;;;;;;;;;27.68;36.14;94150.72;4985864;28;7118;-63
2023/02/21 15:36:26;;;;;;;;;;;;;;;27.72;36.40;94156.69;4975714;28;7084;-62
2023/02/21 15:39:48;;;;;;;;;;;;;;;27.73;36.52;94149.88;4984963;28;7245;-62
2023/02/21 15:42:26;;;;;;;;;;;;;;;27.73;36.16;94147.13;4991341;28;9655;-63
2023/02/21 15:44:59;;;;;;;;;;;;;;;27.72;36.33;94142.88;4995020;28;7266;-63
2023/02/21 15:47:35;;;;;;;;;;;;;;;27.65;36.60;94147.00;4995425;28;7790;-63
2023/02/21 15:50:17;;;;;;;;;;;;;;;27.66;36.67;94139.47;4977965;28;7234;-63
2023/02/21 15:52:52;;;;;;;;;;;;;;;27.63;36.54;94144.78;4979085;28;7309;-63
2023/02/21 15:55:29;;;;;;;;;;;;;;;27.66;36.81;94139.47;5020658;28;7031;-63
2023/02/21 15:57:58;;;;;;;;;;;;;;;27.67;36.52;94140.94;5055715;28;9087;-62
2023/02/21 16:01:05;;;;;;;;;;;;;;;27.64;36.24;94140.72;5038603;28;7033;-63
2023/02/21 16:03:43;;;;;;;;;;;;;;;27.63;36.46;94147.53;4990641;28;9123;-63
2023/02/21 16:06:28;;;;;;;;;;;;;;;27.61;36.59;94141.81;4985564;28;7061;-62
2023/02/21 16:09:00;;;;;;;;;;;;;;;27.57;36.69;94141.38;4984406;28;7041;-63
2023/02/21 16:12:00;;;;;;;;;;;;;;;27.54;36.81;94141.69;4977442;28;7289;-63
2023/02/21 16:14:38;;;;;;;;;;;;;;;27.49;36.67;94134.97;4972103;28;7145;-63
2023/02/21 16:17:27;;;;;;;;;;;;;;;27.48;36.38;94138.28;5001362;28;7257;-63
2023/02/21 16:19:59;;;;;;;;;;;;;;;27.47;36.28;94137.53;4992582;28;7072;-63
2023/02/21 16:22:35;;;;;;;;;;;;;;;27.44;36.93;94146.13;4983386;28;7005;-62
2023/02/21 16:25:27;;;;;;;;;;;;;;;27.42;36.53;94152.19;4990388;28;7292;-63
2023/02/21 16:27:56;;;;;;;;;;;;;;;27.41;36.90;94142.41;4986366;28;7021;-63
2023/02/21 16:30:24;;;;;;;;;;;;;;;27.40;37.02;94146.47;4971394;28;7027;-63
2023/02/21 16:32:52;;;;;;;;;;;;;;;27.38;36.69;94153.78;4999205;28;7295;-63
2023/02/21 16:35:24;;;;;;;;;;;;;;;27.37;36.79;94155.03;4970937;28;7291;-63
2023/02/21 16:37:54;;;;;;;;;;;;;;;27.36;36.55;94143.25;5027099;28;8992;-63
2023/02/21 16:40:26;;;;;;;;;;;;;;;27.36;36.87;94143.25;5034173;28;9323;-63
2023/02/21 16:42:59;;;;;;;;;;;;;;;27.34;36.67;94154.03;5051425;28;9209;-63
2023/02/21 16:45:26;;;;;;;;;;;;;;;27.31;36.87;94151.59;5030532;28;8646;-63
2023/02/21 16:48:00;;;;;;;;;;;;;;;27.28;36.34;94150.63;5044325;28;7001;-63
2023/02/21 16:50:32;;;;;;;;;;;;;;;27.26;36.87;94152.44;5039265;28;7025;-63